tititudorancea.com
Ararat Weather - Ararat,Victoria,Australia
 
Daily Summary for October 22, 2014 Units:  Metric    English   Both
« Previous Day
Next Day »
Daily Weekly Monthly Yearly Custom
  Current: High: Low: Average:
Temperature: 33.1 °C 33.1 °C 13.4 °C 19.9 °C
Dew Point: 12.7 °C 14.3 °C 8.2 °C 11.2 °C
Humidity: 29% 76% 29% 60%
Wind Speed: 6.1km/h 17.2km/h 0km/h 5.3km/h
Wind Gust: 24.5km/h 28km/h - -
WindNorth - - SSE
Pressure: 1015.5 hPa 1020.9 hPa 1015.5 hPa -
Precipitation: 0 mm      
Historical Graphs
 
 
Ararat weather Find more about Weather in Ararat, AU


 




 


Tabular Data for October 22, 2014
Time Temperature Dew Point Pressure Wind Wind Speed Wind Gust Humidity Rainfall Rate (Hourly)
00:02 16.4 °C 8.3 °C 1020.9 hPa NW 1.1 km/h 3.5 km/h 59% 0 mm
00:07 16.3 °C 8.2 °C 1020.5 hPa NW 1.1 km/h 5 km/h 59% 0 mm
00:12 16.2 °C 8.2 °C 1020.5 hPa NW 2.6 km/h 5 km/h 59% 0 mm
00:17 16.1 °C 8.3 °C 1020.5 hPa NW 2.6 km/h 3.5 km/h 60% 0 mm
00:22 16.1 °C 8.3 °C 1020.5 hPa NW 2.6 km/h 3.5 km/h 60% 0 mm
00:27 16 °C 8.4 °C 1020.2 hPa WNW 2.6 km/h 5 km/h 61% 0 mm
00:32 15.9 °C 8.4 °C 1020.2 hPa NW 3.5 km/h 5 km/h 61% 0 mm
00:37 15.8 °C 8.5 °C 1020.2 hPa NW 2.6 km/h 5 km/h 62% 0 mm
00:42 15.8 °C 8.5 °C 1020.2 hPa NW 2.6 km/h 5 km/h 62% 0 mm
00:47 15.8 °C 8.8 °C 1020.2 hPa NW 1.1 km/h 3.5 km/h 63% 0 mm
00:52 15.7 °C 8.7 °C 1020.2 hPa NW 2.6 km/h 5 km/h 63% 0 mm
00:57 15.7 °C 8.9 °C 1020.2 hPa NW 1.1 km/h 5 km/h 64% 0 mm
01:02 15.6 °C 8.8 °C 1020.2 hPa NW 1.1 km/h 5 km/h 64% 0 mm
01:07 15.7 °C 9.1 °C 1020.2 hPa NW 1.1 km/h 5 km/h 65% 0 mm
01:12 15.6 °C 9.1 °C 1019.9 hPa NW 2.6 km/h 3.5 km/h 65% 0 mm
01:17 15.7 °C 9.1 °C 1019.9 hPa NW 1.1 km/h 5 km/h 65% 0 mm
01:22 15.6 °C 9.3 °C 1019.9 hPa NW 1.1 km/h 5 km/h 66% 0 mm
01:27 15.6 °C 9.3 °C 1019.5 hPa NW 2.6 km/h 5 km/h 66% 0 mm
01:32 15.6 °C 9.3 °C 1019.5 hPa NW 2.6 km/h 5 km/h 66% 0 mm
01:37 15.5 °C 9.4 °C 1019.5 hPa NW 2.6 km/h 5 km/h 67% 0 mm
01:42 15.5 °C 9.4 °C 1019.5 hPa NW 1.1 km/h 5 km/h 67% 0 mm
01:47 15.4 °C 9.3 °C 1019.2 hPa NW 1.1 km/h 6.1 km/h 67% 0 mm
01:52 15.4 °C 9.5 °C 1019.5 hPa NW 2.6 km/h 6.1 km/h 68% 0 mm
01:57 15.4 °C 9.5 °C 1019.2 hPa NW 2.6 km/h 5 km/h 68% 0 mm
02:02 15.3 °C 9.4 °C 1019.2 hPa NW 2.6 km/h 5 km/h 68% 0 mm
02:07 15.3 °C 9.4 °C 1019.2 hPa NNW 2.6 km/h 6.1 km/h 68% 0 mm
02:12 15.2 °C 9.6 °C 1019.2 hPa NNW 2.6 km/h 6.1 km/h 69% 0 mm
02:17 15.2 °C 9.6 °C 1019.2 hPa NW 1.1 km/h 5 km/h 69% 0 mm
02:22 15.2 °C 9.6 °C 1018.8 hPa NW 1.1 km/h 6.1 km/h 69% 0 mm
02:27 15.2 °C 9.8 °C 1019.2 hPa NW 2.6 km/h 7.2 km/h 70% 0 mm
02:32 15.2 °C 9.8 °C 1018.8 hPa NW 1.1 km/h 7.2 km/h 70% 0 mm
02:37 15.2 °C 9.8 °C 1018.8 hPa NW 1.1 km/h 5 km/h 70% 0 mm
02:42 15.1 °C 9.7 °C 1018.8 hPa Calm   5 km/h 70% 0 mm
02:47 15 °C 9.6 °C 1018.8 hPa Calm   5 km/h 70% 0 mm
02:52 14.9 °C 9.5 °C 1018.8 hPa NNW 2.6 km/h 5 km/h 70% 0 mm
02:57 14.9 °C 9.7 °C 1018.8 hPa NNW 1.1 km/h 6.1 km/h 71% 0 mm
03:02 14.9 °C 9.7 °C 1018.8 hPa NNW 2.6 km/h 6.1 km/h 71% 0 mm
03:07 14.9 °C 9.7 °C 1018.8 hPa NNW 2.6 km/h 6.1 km/h 71% 0 mm
03:12 14.9 °C 9.7 °C 1018.8 hPa NNW 1.1 km/h 6.1 km/h 71% 0 mm
03:17 14.8 °C 9.6 °C 1018.8 hPa North 1.1 km/h 5 km/h 71% 0 mm
03:22 14.7 °C 9.5 °C 1018.8 hPa North 1.1 km/h 5 km/h 71% 0 mm
03:27 14.6 °C 9.4 °C 1018.8 hPa NNW 1.1 km/h 6.1 km/h 71% 0 mm
03:32 14.4 °C 9.2 °C 1018.8 hPa NNW 1.1 km/h 6.1 km/h 71% 0 mm
03:37 14.2 °C 9.2 °C 1018.8 hPa NNW 2.6 km/h 6.1 km/h 72% 0 mm
03:42 14 °C 9.1 °C 1018.8 hPa NNW 1.1 km/h 6.1 km/h 72% 0 mm
03:47 13.9 °C 9.2 °C 1018.8 hPa NNW 1.1 km/h 5 km/h 73% 0 mm
03:52 13.8 °C 9.1 °C 1018.8 hPa NNW 1.1 km/h 5 km/h 73% 0 mm
03:57 13.8 °C 9.1 °C 1018.5 hPa NNW 2.6 km/h 6.1 km/h 73% 0 mm
04:02 13.7 °C 8.9 °C 1018.8 hPa NNW 1.1 km/h 6.1 km/h 73% 0 mm
04:07 13.7 °C 9.2 °C 1018.5 hPa Calm   6.1 km/h 74% 0 mm
04:12 13.7 °C 9.2 °C 1018.5 hPa North 1.1 km/h 3.5 km/h 74% 0 mm
04:17 13.6 °C 8.9 °C 1018.5 hPa NNE 2.6 km/h 3.5 km/h 73% 0 mm
04:22 13.6 °C 9.1 °C 1018.5 hPa NE 2.6 km/h 3.5 km/h 74% 0 mm
04:27 13.6 °C 9.1 °C 1018.5 hPa NE 2.6 km/h 5 km/h 74% 0 mm
04:32 13.5 °C 9 °C 1018.5 hPa NE 1.1 km/h 5 km/h 74% 0 mm
04:37 13.5 °C 8.8 °C 1018.5 hPa NE 1.1 km/h 3.5 km/h 73% 0 mm
04:42 13.5 °C 9 °C 1018.5 hPa NE 1.1 km/h 3.5 km/h 74% 0 mm
04:47 13.4 °C 8.9 °C 1018.5 hPa NE 2.6 km/h 3.5 km/h 74% 0 mm
04:52 13.5 °C 9.2 °C 1018.2 hPa ENE 1.1 km/h 5 km/h 75% 0 mm
04:57 13.5 °C 9.2 °C 1018.2 hPa NE 1.1 km/h 5 km/h 75% 0 mm
05:02 13.4 °C 9.1 °C 1018.2 hPa North 1.1 km/h 3.5 km/h 75% 0 mm
05:07 13.4 °C 9.1 °C 1018.2 hPa NE 1.1 km/h 3.5 km/h 75% 0 mm
05:12 13.4 °C 9.1 °C 1018.2 hPa NE 2.6 km/h 3.5 km/h 75% 0 mm
05:17 13.4 °C 9.3 °C 1018.2 hPa NNE 1.1 km/h 3.5 km/h 76% 0 mm
05:22 13.4 °C 9.3 °C 1017.8 hPa NNW 3.5 km/h 7.2 km/h 76% 0 mm
05:27 13.4 °C 9.3 °C 1018.2 hPa North 3.5 km/h 7.2 km/h 76% 0 mm
05:32 13.5 °C 9.4 °C 1018.2 hPa North 6.1 km/h 9.7 km/h 76% 0 mm
05:37 13.7 °C 9.6 °C 1018.2 hPa North 2.6 km/h 9.7 km/h 76% 0 mm
05:42 13.8 °C 9.7 °C 1018.2 hPa North 2.6 km/h 9.7 km/h 76% 0 mm
05:47 13.9 °C 9.8 °C 1017.8 hPa North 3.5 km/h 8.7 km/h 76% 0 mm
05:52 14.2 °C 10.1 °C 1017.8 hPa NNE 3.5 km/h 11.1 km/h 76% 0 mm
05:57 14.3 °C 10.2 °C 1017.8 hPa North 3.5 km/h 11.1 km/h 76% 0 mm
06:02 14.4 °C 10.2 °C 1017.8 hPa North 1.1 km/h 11.1 km/h 76% 0 mm
06:07 14.4 °C 10.1 °C 1017.8 hPa NNE 5 km/h 9.7 km/h 75% 0 mm
06:12 14.6 °C 10.4 °C 1018.2 hPa North 3.5 km/h 11.1 km/h 76% 0 mm
06:17 14.7 °C 10.5 °C 1018.2 hPa North 2.6 km/h 11.1 km/h 76% 0 mm
06:22 14.8 °C 10.6 °C 1018.2 hPa NNW 6.1 km/h 9.7 km/h 76% 0 mm
06:27 15 °C 10.8 °C 1017.8 hPa North 2.6 km/h 9.7 km/h 76% 0 mm
06:32 15.2 °C 10.8 °C 1018.2 hPa North 3.5 km/h 11.1 km/h 75% 0 mm
06:37 15.3 °C 10.9 °C 1018.2 hPa NNW 6.1 km/h 12.2 km/h 75% 0 mm
06:42 15.4 °C 11 °C 1018.2 hPa North 3.5 km/h 12.2 km/h 75% 0 mm
06:47 15.6 °C 10.9 °C 1018.2 hPa NNE 3.5 km/h 13.4 km/h 74% 0 mm
06:52 15.8 °C 11.2 °C 1018.2 hPa North 8.7 km/h 17.2 km/h 74% 0 mm
06:57 16 °C 11.2 °C 1018.5 hPa North 3.5 km/h 17.2 km/h 73% 0 mm
07:02 16.1 °C 11.2 °C 1018.5 hPa North 5 km/h 14.8 km/h 73% 0 mm
07:07 16.2 °C 11.1 °C 1018.5 hPa North 1.1 km/h 12.2 km/h 72% 0 mm
07:12 16.3 °C 11.2 °C 1018.5 hPa North 3.5 km/h 12.2 km/h 72% 0 mm
07:17 16.4 °C 11.1 °C 1018.2 hPa NNE 2.6 km/h 9.7 km/h 71% 0 mm
07:22 16.4 °C 11.1 °C 1018.5 hPa North 1.1 km/h 6.1 km/h 71% 0 mm
07:27 16.4 °C 11.1 °C 1018.2 hPa North 1.1 km/h 7.2 km/h 71% 0 mm
07:32 16.4 °C 11.1 °C 1018.5 hPa North 1.1 km/h 7.2 km/h 71% 0 mm
07:37 16.4 °C 11.2 °C 1018.5 hPa North 1.1 km/h 6.1 km/h 71% 0 mm
07:42 16.4 °C 11.2 °C 1018.5 hPa NNE 7.2 km/h 14.8 km/h 71% 0 mm
07:47 16.7 °C 11.4 °C 1018.5 hPa NE 13.4 km/h 21.9 km/h 71% 0 mm
07:52 16.8 °C 11.6 °C 1018.5 hPa NE 11.1 km/h 21.9 km/h 71% 0 mm
07:57 17.1 °C 11.6 °C 1018.5 hPa NE 12.2 km/h 19.5 km/h 70% 0 mm
08:02 17.2 °C 11.7 °C 1018.5 hPa NNE 8.7 km/h 19.5 km/h 70% 0 mm
08:07 17.2 °C 11.7 °C 1018.5 hPa NNE 9.7 km/h 19.5 km/h 70% 0 mm
08:12 17.3 °C 11.8 °C 1018.5 hPa NNE 1.1 km/h 17.2 km/h 70% 0 mm
08:17 17.4 °C 11.7 °C 1018.2 hPa NE 11.1 km/h 17.2 km/h 69% 0 mm
08:22 17.4 °C 11.7 °C 1018.2 hPa NE 3.5 km/h 19.5 km/h 69% 0 mm
08:27 17.6 °C 11.8 °C 1018.2 hPa NE 8.7 km/h 19.5 km/h 69% 0 mm
08:32 17.7 °C 12.2 °C 1018.5 hPa NE 3.5 km/h 12.2 km/h 70% 0 mm
08:37 17.8 °C 11.8 °C 1018.2 hPa NNE 8.7 km/h 13.4 km/h 68% 0 mm
08:42 17.9 °C 12.2 °C 1018.2 hPa NE 7.2 km/h 13.4 km/h 69% 0 mm
08:47 18.5 °C 12.7 °C 1018.2 hPa NE 8.7 km/h 13.4 km/h 69% 0 mm
08:52 19.4 °C 13.1 °C 1018.2 hPa NNE 5 km/h 14.8 km/h 67% 0 mm
08:57 20 °C 13.2 °C 1018.2 hPa NNE 9.7 km/h 14.8 km/h 65% 0 mm
09:02 20.5 °C 13.4 °C 1018.2 hPa NE 6.1 km/h 15.8 km/h 64% 0 mm
09:07 20.9 °C 13.1 °C 1018.5 hPa NE 9.7 km/h 18.3 km/h 61% 0 mm
09:12 21.4 °C 13.6 °C 1018.2 hPa NNE 5 km/h 18.3 km/h 61% 0 mm
09:17 21.8 °C 13.8 °C 1018.2 hPa NNE 5 km/h 14.8 km/h 60% 0 mm
09:22 22.2 °C 13.6 °C 1018.2 hPa NE 9.7 km/h 17.2 km/h 58% 0 mm
09:27 22.4 °C 13.5 °C 1018.2 hPa NE 9.7 km/h 17.2 km/h 57% 0 mm
09:32 23.1 °C 14.1 °C 1018.2 hPa NE 7.2 km/h 18.3 km/h 57% 0 mm
09:37 23.5 °C 14 °C 1018.2 hPa NNE 8.7 km/h 19.5 km/h 55% 0 mm
09:42 23.9 °C 14.1 °C 1018.2 hPa NNE 8.7 km/h 19.5 km/h 54% 0 mm
09:47 24.5 °C 14.3 °C 1018.2 hPa NE 6.1 km/h 19.5 km/h 53% 0 mm
09:52 25.2 °C 14.1 °C 1018.2 hPa NE 9.7 km/h 19.5 km/h 50% 0 mm
09:57 25.7 °C 13.9 °C 1018.2 hPa NE 12.2 km/h 20.9 km/h 48% 0 mm
10:02 25.8 °C 13.9 °C 1018.2 hPa NE 14.8 km/h 23.3 km/h 48% 0 mm
10:07 25.9 °C 14.1 °C 1018.2 hPa NE 14.8 km/h 24.5 km/h 48% 0 mm
10:12 26.1 °C 14.2 °C 1018.2 hPa NE 5 km/h 24.5 km/h 48% 0 mm
10:17 26.1 °C 13.9 °C 1018.2 hPa NE 6.1 km/h 19.5 km/h 47% 0 mm
10:22 25.9 °C 13.5 °C 1018.2 hPa NNE 12.2 km/h 21.9 km/h 46% 0 mm
10:27 25.8 °C 13.9 °C 1017.8 hPa NE 7.2 km/h 21.9 km/h 48% 0 mm
10:32 25.9 °C 13.7 °C 1018.2 hPa NE 9.7 km/h 19.5 km/h 47% 0 mm
10:37 26.1 °C 14.2 °C 1018.2 hPa NNE 11.1 km/h 17.2 km/h 48% 0 mm
10:42 26.2 °C 13.7 °C 1017.8 hPa NNE 7.2 km/h 18.3 km/h 46% 0 mm
10:47 26.3 °C 13.7 °C 1017.8 hPa North 6.1 km/h 19.5 km/h 46% 0 mm
10:52 26.3 °C 13.4 °C 1017.8 hPa North 8.7 km/h 23.3 km/h 45% 0 mm
10:57 26.2 °C 13 °C 1017.8 hPa North 8.7 km/h 23.3 km/h 44% 0 mm
11:02 25.9 °C 12.7 °C 1017.8 hPa North 13.4 km/h 27 km/h 44% 0 mm
11:07 25.9 °C 12.7 °C 1017.5 hPa North 6.1 km/h 27 km/h 44% 0 mm
11:12 25.9 °C 13.2 °C 1017.5 hPa North 8.7 km/h 21.9 km/h 45% 0 mm
11:17 26.4 °C 13.6 °C 1017.5 hPa NNW 8.7 km/h 21.9 km/h 45% 0 mm
11:22 27.2 °C 14.2 °C 1017.5 hPa NNW 9.7 km/h 18.3 km/h 45% 0 mm
11:27 27.9 °C 13.5 °C 1017.5 hPa NNW 9.7 km/h 21.9 km/h 41% 0 mm
11:32 28.4 °C 13.9 °C 1017.2 hPa North 8.7 km/h 21.9 km/h 41% 0 mm
11:37 28.5 °C 13.6 °C 1017.2 hPa NNE 8.7 km/h 19.5 km/h 40% 0 mm
11:42 28.8 °C 13.9 °C 1017.2 hPa NE 14.8 km/h 25.6 km/h 40% 0 mm
11:47 29.2 °C 13.4 °C 1017.2 hPa NE 13.4 km/h 25.6 km/h 38% 0 mm
11:52 29.4 °C 13.6 °C 1017.2 hPa NE 7.2 km/h 28 km/h 38% 0 mm
11:57 29.9 °C 13.7 °C 1016.8 hPa NNE 6.1 km/h 28 km/h 37% 0 mm
12:02 30.3 °C 14 °C 1016.8 hPa North 5 km/h 21.9 km/h 37% 0 mm
12:07 30.8 °C 13.6 °C 1016.8 hPa NNE 14.8 km/h 24.5 km/h 35% 0 mm
12:12 30.9 °C 13.7 °C 1016.8 hPa NNE 11.1 km/h 24.5 km/h 35% 0 mm
12:17 30.9 °C 13.2 °C 1016.5 hPa NNE 13.4 km/h 27 km/h 34% 0 mm
12:22 30.9 °C 13.7 °C 1016.8 hPa NNE 6.1 km/h 28 km/h 35% 0 mm
12:27 31.2 °C 13.9 °C 1016.8 hPa North 11.1 km/h 28 km/h 35% 0 mm
12:32 31.3 °C 14 °C 1016.5 hPa North 6.1 km/h 24.5 km/h 35% 0 mm
12:37 31.1 °C 12.9 °C 1016.5 hPa North 9.7 km/h 24.5 km/h 33% 0 mm
12:42 30.8 °C 13.1 °C 1016.5 hPa NNW 7.2 km/h 25.6 km/h 34% 0 mm
12:47 30.9 °C 13.3 °C 1016.1 hPa NNW 12.2 km/h 27 km/h 34% 0 mm
12:52 31.3 °C 13.7 °C 1016.1 hPa North 6.1 km/h 27 km/h 34% 0 mm
12:57 31.8 °C 13.6 °C 1016.5 hPa North 7.2 km/h 27 km/h 33% 0 mm
13:02 31.2 °C 13 °C 1016.1 hPa North 7.2 km/h 20.9 km/h 33% 0 mm
13:07 31.2 °C 13.5 °C 1016.1 hPa NNW 11.1 km/h 25.6 km/h 34% 0 mm
13:12 31.1 °C 12.9 °C 1016.1 hPa NNW 9.7 km/h 25.6 km/h 33% 0 mm
13:17 30.9 °C 13.2 °C 1016.1 hPa North 12.2 km/h 21.9 km/h 34% 0 mm
13:22 31.3 °C 13.7 °C 1015.8 hPa NNE 9.7 km/h 21.9 km/h 34% 0 mm
13:27 32.3 °C 14.1 °C 1015.8 hPa NNE 17.2 km/h 27 km/h 33% 0 mm
13:32 32.7 °C 12.9 °C 1016.1 hPa North 14.8 km/h 27 km/h 30% 0 mm
13:37 32.2 °C 12.9 °C 1016.1 hPa North 7.2 km/h 23.3 km/h 31% 0 mm
13:42 31.6 °C 12.4 °C 1015.8 hPa North 12.2 km/h 21.9 km/h 31% 0 mm
13:47 31.4 °C 13.3 °C 1015.8 hPa North 6.1 km/h 23.3 km/h 33% 0 mm
13:52 32.2 °C 13.5 °C 1015.8 hPa NNW 13.4 km/h 24.5 km/h 32% 0 mm
13:57 32.8 °C 14 °C 1015.5 hPa North 8.7 km/h 24.5 km/h 32% 0 mm
14:02 33.1 °C 12.7 °C 1015.5 hPa North 6.1 km/h 24.5 km/h 29% 0 mm
www.araratweather.com - Email: contact at araratweather.com
Data created with Cumulus & bmak
Click here to send mail.


ABOUT

Live weather data from Ararat, Victoria, Australia, 3377
Data uploaded from Cumulus every 5 minutes to Weather Underground.
This site then downloads the raw data for formatting and display.
Metric and imperial data can be displayed. Graphs and historical data available.
Includes Sun and Moon times and rain image live from BOM.

Check out Ararat Weather on Facebook, Twitter and Google +

Help support ongoing costs by checking out the ads





Follow @AraratWeather